Westgate, IA

11:23 PM CST on March 02, 2015 (GMT -0600)
Oelwein Municipal | Change Station
CLOSE
Current Station
Airport
Location: Oelwein,
Elevation: 1076 ft
Nearby Weather Stations
Active Advisory: Winter Weather Advisory

Elev 1076 ft 42.68 °N, 91.97 °W | Updated 8 minutes ago

Overcast
Overcast
23 °F
Feels Like 11 °F
N
13
Wind Variable Wind from SE

Today
High -- | Low -- °F
--% Chance of Precip.
Yesterday
High -- | Low -- °F
Precip. -- in
6:42 AM 5:58 PM
Waxing Gibbous, 94% visible
Pressure 30.11 in
Visibility 10.0 miles
Clouds Overcast 6000 ft
Windchill 11 °F
Dew Point 18 °F
Humidity 80%
Rainfall 0.00 in
Snow Depth Not available.
UV 0 out of 12
Pollen .50 out of 12
Air Quality Not available.
Flu Activity Not available.
METAR KOLZ 030515Z AUTO 14011KT 10SM OVC060 M05/M08 A3011 RMK AO2

More Conditions Fewer Conditions

Pressure 30.11 in
Visibility 10.0 miles
Clouds Overcast 6000 ft
Windchill 11 °F
Dew Point 18 °F
Humidity 80%
Rainfall 0.00 in
Snow Depth Not available.
UV 0 out of 12
Pollen .50 out of 12
Air Quality Not available.
Flu Activity Not available.
METAR KOLZ 030515Z AUTO 14011KT 10SM OVC060 M05/M08 A3011 RMK AO2

More Conditions Fewer Conditions

10-Day Weather Forecast

Almanac

Astronomy

Mar. 02, 2015 Rise Set
Actual Time
Civil Twilight
Nautical Twilight
Astronomical Twilight
Moon
Length of Visible Light
Length of Day
Tomorrow will be .
, % of the Moon is Illuminated

Today's Extremes

State Highs State Lows

Community

WunderPhotos

Upload Photos

1,802,066 photos uploaded!

WunderBlogs® & News

Nearby

Air Quality

  Air Quality AQ Index Pollutant
Not available.

Snow Depth

Station Depth Elevation

Earthquake Activity

City Distance Mag. Time & Date
Minimum magnitude displayed is 2.5.

Coastal Water Temperatures

Place Temperature

Nearby Weather Stations

Winter Weather Advisory
Statement as of 7:45 PM CST on March 02, 2015

... Winter Weather Advisory remains in effect from 3 am to 9 PM
CST Tuesday...

* expect snow and sleet to develop around 3 am Tuesday and then
diminish early Tuesday afternoon.

* The heaviest snowfall rates will occur between 6 am and noon
Tuesday.

* Winds gusting as high as 45 mph will cause areas of blowing
and drifting snow... especially on ridge tops and in open
areas.

* Total snow and sleet accumulations of 1 to 4 inches are
expected.

* Plan on slippery Road conditions... including during the
morning commute on Tuesday. In addition... areas of poor
visibility are expected.

Precautionary/preparedness actions...

A Winter Weather Advisory means there will be travel
difficulties. Be prepared for snow covered roads and limited
visibilities... and use caution while driving.


Shea